Time;durP1;ratioP1;P1;durP2;ratioP2;P2;SDS_P1;SDS_P2;PMS_P1;PMS_P2;Temp;Humidity;BMP_temperature;BMP_pressure;BME280_temperature;BME280_humidity;BME280_pressure;Samples;Min_cycle;Max_cycle;Signal;HPM_P1;HPM_P2
2022/08/31 00:05:31;;;;;;;0.10;0.10;;;14.70;99.90;;;;;;4765237;30;20048;-83
2022/08/31 00:08:21;;;;;;;0.10;0.10;;;14.60;99.90;;;;;;4790702;29;20516;-84
2022/08/31 00:11:08;;;;;;;0.15;0.10;;;14.60;99.90;;;;;;4800434;29;20068;-83
2022/08/31 00:13:56;;;;;;;0.10;0.10;;;14.50;99.90;;;;;;4783895;29;20138;-84
2022/08/31 00:16:51;;;;;;;0.00;0.00;;;14.50;99.90;;;;;;4790981;29;20047;-83
2022/08/31 00:31:24;;;;;;;0.10;0.10;;;14.30;99.90;;;;;;4805931;29;20049;-84
2022/08/31 00:33:59;;;;;;;0.30;0.15;;;14.30;99.90;;;;;;4782695;29;20918;-83
2022/08/31 00:36:55;;;;;;;0.10;0.10;;;14.30;99.90;;;;;;4788815;29;20479;-83
2022/08/31 00:39:51;;;;;;;0.08;0.00;;;14.20;99.90;;;;;;4804283;29;20522;-83
2022/08/31 00:42:34;;;;;;;0.40;0.15;;;14.20;99.90;;;;;;4819232;29;20069;-83
2022/08/31 00:45:24;;;;;;;0.10;0.10;;;14.10;99.90;;;;;;4788813;29;20063;-84
2022/08/31 00:48:18;;;;;;;1.30;0.10;;;14.10;99.90;;;;;;4797872;29;20058;-83
2022/08/31 00:51:14;;;;;;;0.20;0.10;;;14.00;99.90;;;;;;4805627;29;20051;-84
2022/08/31 01:05:01;;;;;;;1.95;0.10;;;13.80;99.90;;;;;;4806159;29;20077;-83
2022/08/31 01:07:53;;;;;;;;;;;;;;;;;;;;;
2022/08/31 01:10:57;;;;;;;;;;;;;;;;;;;;;
2022/08/31 01:13:43;;;;;;;0.25;0.10;;;13.70;99.90;;;;;;4804417;29;20097;-83
2022/08/31 01:16:45;;;;;;;0.10;0.10;;;13.70;99.90;;;;;;4796228;29;20434;-83
2022/08/31 01:19:43;;;;;;;0.10;0.10;;;13.70;99.90;;;;;;4788037;29;20055;-83
2022/08/31 01:23:07;;;;;;;0.10;0.10;;;13.60;99.90;;;;;;4788008;29;20078;-83
2022/08/31 01:29:29;;;;;;;1.02;0.10;;;13.50;99.90;;;;;;4805745;29;20073;-83
2022/08/31 01:32:19;;;;;;;0.75;0.20;;;13.50;99.90;;;;;;4783822;29;20134;-84
2022/08/31 01:35:03;;;;;;;0.20;0.10;;;13.30;99.90;;;;;;4805606;29;20107;-85
2022/08/31 01:37:55;;;;;;;0.10;0.10;;;13.30;99.90;;;;;;4803997;29;20078;-84
2022/08/31 01:41:08;;;;;;;;;;;;;;;;;;;;;
2022/08/31 01:43:55;;;;;;;;;;;;;;;;;;;;;
2022/08/31 01:46:39;;;;;;;0.17;0.10;;;13.20;99.90;;;;;;4781626;30;20502;-85
2022/08/31 01:49:41;;;;;;;0.10;0.10;;;13.20;99.90;;;;;;4788063;29;20054;-83
2022/08/31 01:52:35;;;;;;;0.22;0.10;;;13.10;99.90;;;;;;4788069;29;20118;-82
2022/08/31 01:55:20;;;;;;;0.13;0.10;;;13.10;99.90;;;;;;4803277;29;20054;-82
2022/08/31 01:58:13;;;;;;;0.68;0.20;;;13.10;99.90;;;;;;4804499;29;20067;-83
2022/08/31 02:00:53;;;;;;;0.40;0.20;;;13.00;99.90;;;;;;4787790;29;20589;-83
2022/08/31 02:03:39;;;;;;;0.10;0.10;;;13.00;99.90;;;;;;4805301;29;20047;-84
2022/08/31 02:06:30;;;;;;;0.22;0.17;;;12.70;99.90;;;;;;4803965;29;20051;-83
2022/08/31 02:09:03;;;;;;;0.55;0.20;;;13.00;99.90;;;;;;4762934;29;20079;-82
2022/08/31 02:12:07;;;;;;;0.80;0.30;;;12.90;99.90;;;;;;4779842;29;20052;-82
2022/08/31 02:15:01;;;;;;;0.10;0.10;;;12.80;99.90;;;;;;4783688;29;20142;-83
2022/08/31 02:17:48;;;;;;;0.28;0.20;;;12.90;99.90;;;;;;4784970;29;20062;-84
2022/08/31 02:20:51;;;;;;;;;;;;;;;;;;;;;
2022/08/31 02:23:40;;;;;;;0.10;0.10;;;12.80;99.90;;;;;;4796571;29;20049;-82
2022/08/31 02:26:33;;;;;;;0.10;0.10;;;12.80;99.90;;;;;;4806901;29;20070;-83
2022/08/31 02:29:24;;;;;;;0.20;0.10;;;12.80;99.90;;;;;;4790991;29;20126;-83
2022/08/31 02:35:51;;;;;;;0.10;0.10;;;12.70;99.90;;;;;;4791947;29;20050;-83
2022/08/31 02:38:34;;;;;;;0.10;0.10;;;12.70;99.90;;;;;;4790815;29;20524;-83
2022/08/31 02:41:17;;;;;;;0.10;0.10;;;12.60;99.90;;;;;;4790794;29;20077;-83
2022/08/31 02:44:07;;;;;;;0.20;0.20;;;12.60;99.90;;;;;;4790598;29;20087;-83
2022/08/31 02:47:01;;;;;;;0.10;0.10;;;12.60;99.90;;;;;;4804758;29;20065;-83
2022/08/31 02:49:55;;;;;;;0.70;0.10;;;12.60;99.90;;;;;;4807786;29;20050;-83
2022/08/31 02:52:49;;;;;;;0.40;0.20;;;12.60;99.90;;;;;;4807766;29;20117;-83
2022/08/31 02:55:51;;;;;;;0.10;0.10;;;12.60;99.90;;;;;;4806545;29;20485;-83
2022/08/31 02:58:45;;;;;;;0.30;0.20;;;12.60;99.90;;;;;;4807687;29;20115;-83
2022/08/31 03:01:47;;;;;;;0.22;0.10;;;12.50;99.90;;;;;;4800751;29;20543;-84
2022/08/31 03:04:32;;;;;;;0.17;0.10;;;12.50;99.90;;;;;;4787812;29;20058;-84
2022/08/31 03:07:13;;;;;;;0.13;0.10;;;12.50;99.90;;;;;;4790709;29;20447;-83
2022/08/31 03:10:01;;;;;;;;;;;12.50;99.90;;;;;;4791497;29;20092;-83
2022/08/31 03:12:47;;;;;;;0.20;0.20;;;12.50;99.90;;;;;;4790307;29;19925;-83
2022/08/31 03:15:30;;;;;;;0.10;0.10;;;12.50;99.90;;;;;;4795744;29;20149;-83
2022/08/31 03:18:13;;;;;;;0.20;0.10;;;12.50;99.90;;;;;;4820503;29;20050;-83
2022/08/31 03:21:04;;;;;;;0.40;0.20;;;12.50;99.90;;;;;;4806970;29;20054;-83
2022/08/31 03:23:49;;;;;;;;;;;;;;;;;;;;;
2022/08/31 03:26:30;;;;;;;0.10;0.10;;;12.50;99.90;;;;;;4790730;29;20057;-83
2022/08/31 03:29:17;;;;;;;0.20;0.10;;;12.50;99.90;;;;;;4803793;29;20070;-84
2022/08/31 03:32:10;;;;;;;;;;;;;;;;;;;;;
2022/08/31 03:35:07;;;;;;;0.20;0.17;;;12.20;99.90;;;;;;4794505;29;20116;-83
2022/08/31 03:38:07;;;;;;;;;;;;;;;;;;;;;
2022/08/31 03:40:46;;;;;;;0.20;0.13;;;12.50;99.90;;;;;;4769197;30;20051;-83
2022/08/31 03:43:37;;;;;;;0.20;0.15;;;12.40;99.90;;;;;;4772864;30;20055;-84
2022/08/31 03:46:25;;;;;;;0.20;0.20;;;12.30;99.90;;;;;;4803775;29;20059;-83
2022/08/31 03:49:19;;;;;;;1.35;0.10;;;12.30;99.90;;;;;;4806753;29;20104;-84
2022/08/31 03:52:26;;;;;;;0.32;0.17;;;12.30;99.90;;;;;;4806863;29;20042;-83
2022/08/31 03:55:11;;;;;;;0.40;0.25;;;12.20;99.90;;;;;;4805580;29;20055;-83
2022/08/31 04:01:51;;;;;;;0.30;0.20;;;12.10;99.90;;;;;;4805475;29;20049;-84
2022/08/31 04:04:34;;;;;;;1.42;0.20;;;12.10;99.90;;;;;;4806607;29;20047;-84
2022/08/31 04:07:20;;;;;;;0.20;0.20;;;12.00;99.90;;;;;;4805674;29;20086;-83
2022/08/31 04:10:01;;;;;;;0.20;0.20;;;12.00;99.90;;;;;;4795706;29;20065;-84
2022/08/31 04:12:43;;;;;;;0.43;0.20;;;12.00;99.90;;;;;;4791346;29;20058;-83
2022/08/31 04:15:34;;;;;;;0.28;0.20;;;11.90;99.90;;;;;;4806342;29;20050;-83
2022/08/31 04:18:34;;;;;;;0.28;0.10;;;11.90;99.90;;;;;;4806209;29;20062;-85
2022/08/31 04:24:43;;;;;;;0.43;0.20;;;11.80;99.90;;;;;;4801470;29;20054;-84
2022/08/31 04:27:37;;;;;;;0.10;0.10;;;11.80;99.90;;;;;;4791419;29;20072;-84
2022/08/31 04:30:52;;;;;;;;;;;;;;;;;;;;;
2022/08/31 04:33:35;;;;;;;0.55;0.13;;;11.80;99.90;;;;;;4740344;30;20080;-85
2022/08/31 04:36:11;;;;;;;0.20;0.20;;;11.80;99.90;;;;;;4733296;30;20632;-85
2022/08/31 04:38:56;;;;;;;0.65;0.20;;;11.80;99.90;;;;;;4747977;30;20418;-83
2022/08/31 04:41:32;;;;;;;0.30;0.20;;;11.80;99.90;;;;;;4743590;30;20193;-83
2022/08/31 04:44:25;;;;;;;0.10;0.10;;;11.80;99.90;;;;;;4750681;30;20083;-83
2022/08/31 04:47:07;;;;;;;1.40;0.30;;;11.70;99.90;;;;;;4746124;30;20070;-83
2022/08/31 04:49:51;;;;;;;0.82;0.20;;;11.70;99.90;;;;;;4717078;30;20057;-83
2022/08/31 04:52:28;;;;;;;0.10;0.10;;;11.90;99.90;;;;;;4733415;30;20061;-82
2022/08/31 04:55:07;;;;;;;0.20;0.20;;;11.70;99.90;;;;;;4729667;30;20091;-83
2022/08/31 04:57:41;;;;;;;0.75;0.47;;;12.10;99.90;;;;;;4734268;30;20048;-83
2022/08/31 05:00:28;;;;;;;0.32;0.20;;;11.60;99.90;;;;;;4750358;30;20064;-83
2022/08/31 05:03:04;;;;;;;0.17;0.17;;;11.60;99.90;;;;;;4733989;30;20064;-82
2022/08/31 05:05:51;;;;;;;0.63;0.30;;;11.70;99.90;;;;;;4734550;30;20049;-83
2022/08/31 05:08:31;;;;;;;0.20;0.20;;;11.70;99.90;;;;;;4788661;29;20083;-83
2022/08/31 05:11:15;;;;;;;0.20;0.20;;;11.70;99.90;;;;;;4805678;29;20063;-84
2022/08/31 05:14:05;;;;;;;0.10;0.10;;;11.80;99.90;;;;;;4805518;29;20051;-84
2022/08/31 05:16:45;;;;;;;0.10;0.10;;;11.90;99.90;;;;;;4804416;29;20050;-83
2022/08/31 05:19:27;;;;;;;0.10;0.10;;;11.90;99.90;;;;;;4805763;29;20050;-84
2022/08/31 05:22:20;;;;;;;0.43;0.20;;;11.90;99.90;;;;;;4800712;29;20047;-84
2022/08/31 05:25:04;;;;;;;0.38;0.10;;;12.00;99.90;;;;;;4787277;29;20086;-84
2022/08/31 05:27:37;;;;;;;0.35;0.10;;;12.00;99.90;;;;;;4788122;29;20072;-84
2022/08/31 05:30:22;;;;;;;0.20;0.20;;;12.00;99.90;;;;;;4804324;29;20043;-84
2022/08/31 05:33:09;;;;;;;0.30;0.28;;;12.10;99.90;;;;;;4799618;29;20455;-84
2022/08/31 05:35:52;;;;;;;0.13;0.10;;;12.20;99.90;;;;;;4792413;29;20051;-83
2022/08/31 05:38:29;;;;;;;0.20;0.20;;;12.30;99.90;;;;;;4801533;29;20529;-83
2022/08/31 05:41:10;;;;;;;0.40;0.30;;;12.30;99.90;;;;;;4805315;29;20106;-84
2022/08/31 05:44:05;;;;;;;0.15;0.15;;;12.40;99.90;;;;;;4787888;29;20057;-83
2022/08/31 05:46:42;;;;;;;0.20;0.10;;;12.40;99.90;;;;;;4798948;29;20131;-84
2022/08/31 05:49:22;;;;;;;0.20;0.20;;;12.50;99.90;;;;;;4788023;29;20516;-84
2022/08/31 05:52:09;;;;;;;0.10;0.10;;;12.60;99.90;;;;;;4807922;29;20585;-84
2022/08/31 05:54:57;;;;;;;0.45;0.20;;;12.70;99.90;;;;;;4808648;29;20652;-83
2022/08/31 05:57:44;;;;;;;0.15;0.15;;;12.80;99.90;;;;;;4804664;29;20050;-84
2022/08/31 06:00:31;;;;;;;0.13;0.10;;;12.90;99.90;;;;;;4791474;29;20405;-84
2022/08/31 06:03:05;;;;;;;0.10;0.10;;;13.00;99.90;;;;;;4791450;29;20035;-84
2022/08/31 06:05:51;;;;;;;0.17;0.17;;;13.10;99.90;;;;;;4797676;29;20083;-84
2022/08/31 06:08:39;;;;;;;;;;;;;;;;;;;;;
2022/08/31 06:11:33;;;;;;;0.10;0.10;;;13.40;99.90;;;;;;4799722;29;20069;-84
2022/08/31 06:18:09;;;;;;;0.22;0.15;;;13.60;99.90;;;;;;4797753;24;20058;-90
2022/08/31 07:27:01;;;;;;;0.22;0.20;;;17.60;99.90;;;;;;5459711;24;20067;-88
2022/08/31 07:43:25;;;;;;;0.47;0.15;;;18.30;99.90;;;;;;4862129;24;20511;-89
2022/08/31 08:11:56;;;;;;;1.40;0.20;;;19.40;99.90;;;;;;4770809;30;20409;-84
2022/08/31 08:14:47;;;;;;;0.40;0.10;;;19.50;99.90;;;;;;4771638;30;20383;-87
2022/08/31 08:17:26;;;;;;;0.47;0.20;;;19.70;99.90;;;;;;4771442;30;20052;-83
2022/08/31 08:20:04;;;;;;;0.50;0.10;;;19.70;99.90;;;;;;4770454;30;20051;-88
2022/08/31 08:22:42;;;;;;;0.22;0.20;;;19.70;99.90;;;;;;4771378;30;20105;-88
2022/08/31 08:25:25;;;;;;;0.00;0.00;;;19.80;99.90;;;;;;4771343;30;20056;-86
2022/08/31 08:28:21;;;;;;;0.60;0.20;;;19.90;99.90;;;;;;4770747;30;20047;-84
2022/08/31 09:11:40;;;;;;;0.35;0.10;;;21.00;97.90;;;;;;4785215;29;20066;-84
2022/08/31 09:14:28;;;;;;;0.40;0.10;;;21.20;98.00;;;;;;4788715;29;20055;-83
2022/08/31 09:17:39;;;;;;;0.40;0.10;;;21.20;97.00;;;;;;4788479;29;20047;-84
2022/08/31 09:20:42;;;;;;;;;;;;;;;;;;;;;
2022/08/31 09:23:26;;;;;;;0.10;0.10;;;21.70;97.10;;;;;;4781145;30;20047;-84
2022/08/31 09:25:57;;;;;;;0.80;0.10;;;21.80;97.00;;;;;;4736410;30;20139;-83
2022/08/31 09:28:46;;;;;;;0.25;0.10;;;21.80;95.80;;;;;;4753044;30;20119;-84
2022/08/31 09:57:20;;;;;;;0.00;0.00;;;22.60;94.90;;;;;;4794555;24;20154;-84
2022/08/31 10:19:16;;;;;;;;;;;;;;;;;;;;;
2022/08/31 10:28:00;;;;;;;0.45;0.20;;;23.00;93.10;;;;;;4786869;29;20051;-86
2022/08/31 10:31:25;;;;;;;0.10;0.10;;;23.10;92.90;;;;;;4771251;30;20048;-85
2022/08/31 10:38:08;;;;;;;0.25;0.10;;;23.30;92.20;;;;;;4774022;30;20493;-87
2022/08/31 10:41:26;;;;;;;;;;;;;;;;;;;;;
2022/08/31 10:44:43;;;;;;;0.10;0.05;;;23.60;91.70;;;;;;4725337;30;20067;-86
2022/08/31 10:50:37;;;;;;;1.40;0.05;;;23.40;91.10;;;;;;4804908;29;20059;-85
2022/08/31 10:54:05;;;;;;;0.32;0.08;;;23.40;91.00;;;;;;4773264;29;20079;-91
2022/08/31 11:42:11;;;;;;;0.10;0.10;;;24.20;84.40;;;;;;4819685;24;20073;-86
2022/08/31 12:11:35;;;;;;;0.73;0.10;;;24.90;81.80;;;;;;4874014;24;20135;-85
2022/08/31 12:38:26;;;;;;;1.05;0.15;;;25.20;82.50;;;;;;5085206;24;20502;-84
2022/08/31 12:41:06;;;;;;;0.35;0.10;;;24.90;83.20;;;;;;4784491;30;20131;-87
2022/08/31 12:43:53;;;;;;;0.50;0.10;;;24.90;84.30;;;;;;4770267;30;20072;-83
2022/08/31 13:39:13;;;;;;;3.83;0.20;;;24.80;87.20;;;;;;4795680;30;20092;-86
2022/08/31 13:42:44;;;;;;;;;;;;;;;;;;;;;
2022/08/31 13:45:41;;;;;;;0.20;0.10;;;24.60;86.80;;;;;;4775320;30;20064;-85
2022/08/31 13:48:40;;;;;;;0.63;0.30;;;24.70;86.60;;;;;;4808829;29;20089;-85
2022/08/31 13:51:55;;;;;;;1.65;0.10;;;24.60;87.10;;;;;;4807545;30;20054;-84
2022/08/31 13:55:01;;;;;;;0.40;0.20;;;24.50;87.00;;;;;;4790165;30;20052;-86
2022/08/31 13:57:48;;;;;;;;;;;;;;;;;;;;;
2022/08/31 14:34:30;;;;;;;0.35;0.20;;;24.90;99.90;;;;;;5076956;23;20363;-87
2022/08/31 14:37:46;;;;;;;0.35;0.17;;;24.60;99.90;;;;;;5031044;28;20462;-85
2022/08/31 14:41:06;;;;;;;0.70;0.20;;;24.10;99.90;;;;;;5033721;28;20050;-87
2022/08/31 14:43:48;;;;;;;0.65;0.20;;;23.90;97.40;;;;;;5032156;28;20046;-86
2022/08/31 14:51:02;;;;;;;;;;;;;;;;;;;;;
2022/08/31 15:03:54;;;;;;;;;;;;;;;;;;;;;
2022/08/31 15:10:24;;;;;;;;;;;;;;;;;;;;;
2022/08/31 15:13:52;;;;;;;;;;;;;;;;;;;;;
2022/08/31 15:17:22;;;;;;;;;;;;;;;;;;;;;
2022/08/31 15:21:06;;;;;;;;;;;;;;;;;;;;;
2022/08/31 15:23:40;;;;;;;2.00;0.20;;;23.00;91.30;;;;;;4808386;29;20073;-86
2022/08/31 15:27:22;;;;;;;;;;;;;;;;;;;;;
2022/08/31 15:49:42;;;;;;;0.52;0.10;;;22.20;91.90;;;;;;5066751;22;20050;-86
2022/08/31 16:06:02;;;;;;;;;;;;;;;;;;;;;
2022/08/31 16:15:33;;;;;;;;;;;;;;;;;;;;;
2022/08/31 16:29:23;;;;;;;0.52;0.20;;;21.00;94.10;;;;;;5017520;28;20053;-85
2022/08/31 16:32:00;;;;;;;0.75;0.22;;;20.80;94.00;;;;;;5062211;28;20059;-86
2022/08/31 16:34:38;;;;;;;0.88;0.20;;;20.80;94.30;;;;;;5045480;28;20076;-85
2022/08/31 16:37:23;;;;;;;0.65;0.30;;;20.70;94.60;;;;;;5034670;28;20056;-84
2022/08/31 16:39:57;;;;;;;0.40;0.20;;;20.60;94.60;;;;;;5023350;28;20144;-83
2022/08/31 16:42:29;;;;;;;0.22;0.20;;;20.50;95.20;;;;;;5050833;28;20041;-87
2022/08/31 16:45:16;;;;;;;1.60;0.15;;;20.50;94.90;;;;;;5067410;28;20060;-81
2022/08/31 16:50:54;;;;;;;0.20;0.10;;;20.30;96.20;;;;;;5067171;28;20145;-84
2022/08/31 16:53:49;;;;;;;0.77;0.20;;;20.10;96.70;;;;;;5065398;28;20071;-84
2022/08/31 16:56:31;;;;;;;1.00;0.20;;;20.10;96.40;;;;;;5036422;28;20454;-85
2022/08/31 17:03:25;;;;;;;0.40;0.30;;;20.00;97.20;;;;;;5053657;28;20396;-84
2022/08/31 17:05:52;;;;;;;0.77;0.30;;;19.90;97.50;;;;;;5033191;28;20048;-83
2022/08/31 17:08:24;;;;;;;0.80;0.20;;;19.90;97.80;;;;;;5054938;28;20037;-85
2022/08/31 17:11:21;;;;;;;5.90;1.40;;;19.80;97.50;;;;;;5075439;28;20045;-84
2022/08/31 17:13:57;;;;;;;1.67;0.40;;;19.80;97.50;;;;;;5075757;28;20040;-84
2022/08/31 17:16:41;;;;;;;1.35;0.20;;;19.60;97.70;;;;;;5049090;28;20037;-86
2022/08/31 17:19:22;;;;;;;0.73;0.30;;;19.60;97.80;;;;;;5070592;28;20044;-85
2022/08/31 17:22:02;;;;;;;0.40;0.20;;;19.50;98.90;;;;;;5074416;28;20573;-87
2022/08/31 17:25:01;;;;;;;0.30;0.20;;;19.40;98.90;;;;;;5069446;28;20496;-86
2022/08/31 17:27:56;;;;;;;0.85;0.50;;;19.50;99.00;;;;;;5076123;28;20041;-85
2022/08/31 17:30:43;;;;;;;0.80;0.30;;;19.40;98.90;;;;;;5075229;28;20117;-86
2022/08/31 17:33:25;;;;;;;2.38;0.30;;;19.20;99.50;;;;;;5067338;28;20151;-86
2022/08/31 17:36:07;;;;;;;0.57;0.30;;;19.20;99.60;;;;;;5074497;28;20044;-86
2022/08/31 17:38:42;;;;;;;0.80;0.30;;;19.10;99.80;;;;;;5070053;28;20408;-86
2022/08/31 17:41:15;;;;;;;1.30;0.38;;;19.10;99.40;;;;;;5073627;28;20084;-87
2022/08/31 17:43:49;;;;;;;0.70;0.38;;;19.00;99.90;;;;;;5056903;28;20036;-86
2022/08/31 17:47:06;;;;;;;0.60;0.22;;;18.90;99.90;;;;;;5066314;28;20048;-87
2022/08/31 17:49:51;;;;;;;1.00;0.40;;;18.90;99.90;;;;;;5050568;28;20088;-84
2022/08/31 17:53:04;;;;;;;;;;;;;;;;;;;;;
2022/08/31 17:56:18;;;;;;;;;;;;;;;;;;;;;
2022/08/31 17:58:59;;;;;;;0.45;0.25;;;18.70;99.90;;;;;;5053077;28;20044;-87
2022/08/31 18:01:41;;;;;;;2.05;0.40;;;18.60;99.90;;;;;;5075942;28;20047;-86
2022/08/31 18:04:37;;;;;;;;;;;;;;;;;;;;;
2022/08/31 18:07:17;;;;;;;;;;;18.50;99.90;;;;;;5092739;28;20044;-84
2022/08/31 18:10:01;;;;;;;1.08;0.30;;;18.40;99.90;;;;;;5059638;28;20010;-84
2022/08/31 18:12:40;;;;;;;1.98;0.30;;;18.30;99.90;;;;;;5056852;28;20040;-84
2022/08/31 18:15:22;;;;;;;0.47;0.40;;;18.30;99.90;;;;;;5056894;28;20055;-83
2022/08/31 18:18:09;;;;;;;2.10;0.30;;;18.20;99.90;;;;;;5075612;28;20044;-83
2022/08/31 18:20:52;;;;;;;0.40;0.20;;;18.10;99.90;;;;;;5074370;28;20105;-83
2022/08/31 18:23:39;;;;;;;;;;;;;;;;;;;;;
2022/08/31 18:26:35;;;;;;;0.60;0.30;;;18.00;99.90;;;;;;5074147;28;20040;-83
2022/08/31 18:29:19;;;;;;;0.45;0.25;;;17.90;99.90;;;;;;5074934;28;20051;-82
2022/08/31 18:31:58;;;;;;;0.32;0.20;;;17.90;99.90;;;;;;5072220;28;20165;-82
2022/08/31 18:34:24;;;;;;;0.50;0.30;;;17.80;99.90;;;;;;5073807;28;20127;-83
2022/08/31 18:36:53;;;;;;;0.80;0.30;;;17.80;99.90;;;;;;5090196;28;20422;-84
2022/08/31 18:39:24;;;;;;;0.75;0.20;;;17.70;99.90;;;;;;5075824;28;20040;-84
2022/08/31 18:47:31;;;;;;;0.70;0.30;;;17.50;99.90;;;;;;5074443;28;20079;-84
2022/08/31 18:50:01;;;;;;;1.52;0.30;;;17.50;99.90;;;;;;5074175;28;20505;-85
2022/08/31 18:52:33;;;;;;;1.88;0.30;;;17.40;99.90;;;;;;5049657;28;20389;-85
2022/08/31 18:55:03;;;;;;;0.50;0.20;;;17.40;99.90;;;;;;5074579;28;20045;-83
2022/08/31 18:57:34;;;;;;;0.73;0.20;;;17.30;99.90;;;;;;5042744;28;20045;-83
2022/08/31 19:00:04;;;;;;;0.40;0.20;;;17.30;99.90;;;;;;5033691;28;20072;-83
2022/08/31 19:02:41;;;;;;;2.90;0.30;;;17.10;99.90;;;;;;5053851;28;20041;-86
2022/08/31 19:05:10;;;;;;;1.65;0.10;;;17.10;99.90;;;;;;5053913;28;20052;-87
2022/08/31 19:07:40;;;;;;;0.57;0.30;;;17.10;99.90;;;;;;5046566;28;20128;-86
2022/08/31 19:10:12;;;;;;;2.22;0.30;;;17.00;99.90;;;;;;5054580;28;20048;-85
2022/08/31 19:12:41;;;;;;;0.30;0.20;;;17.00;99.90;;;;;;5045716;28;20045;-83
2022/08/31 19:15:15;;;;;;;0.35;0.20;;;16.90;99.90;;;;;;5035093;28;20044;-86
2022/08/31 19:17:48;;;;;;;0.73;0.30;;;16.90;99.90;;;;;;5053253;28;20047;-86
2022/08/31 19:20:20;;;;;;;0.52;0.30;;;16.90;99.90;;;;;;5069900;28;20032;-84
2022/08/31 19:22:49;;;;;;;0.30;0.20;;;16.90;99.90;;;;;;5035931;28;20052;-84
2022/08/31 19:28:59;;;;;;;0.98;0.20;;;16.80;99.90;;;;;;5047505;28;20043;-85
2022/08/31 19:31:30;;;;;;;0.45;0.22;;;16.70;99.90;;;;;;5053053;28;20485;-83
2022/08/31 19:33:59;;;;;;;0.77;0.20;;;16.70;99.90;;;;;;5052201;28;20061;-84
2022/08/31 19:36:34;;;;;;;0.50;0.30;;;16.60;99.90;;;;;;5060629;28;20078;-83
2022/08/31 19:39:05;;;;;;;;;;;16.60;99.90;;;;;;5072927;28;20237;-83
2022/08/31 19:41:34;;;;;;;0.68;0.20;;;16.60;99.90;;;;;;5039216;28;19921;-83
2022/08/31 19:44:20;;;;;;;1.20;0.40;;;16.60;99.90;;;;;;5064184;28;20519;-85
2022/08/31 19:50:48;;;;;;;0.57;0.28;;;16.40;99.90;;;;;;5058154;28;20044;-83
2022/08/31 19:53:35;;;;;;;0.50;0.30;;;16.40;99.90;;;;;;5053226;28;20076;-82
2022/08/31 19:56:33;;;;;;;1.10;0.30;;;16.30;99.90;;;;;;5053022;28;20083;-84
2022/08/31 19:59:29;;;;;;;1.15;0.30;;;16.20;99.90;;;;;;5072032;28;20117;-82
2022/08/31 20:02:07;;;;;;;0.60;0.20;;;16.20;99.90;;;;;;5080258;28;20044;-84
2022/08/31 20:05:01;;;;;;;;;;;;;;;;;;;;;
2022/08/31 20:07:51;;;;;;;0.38;0.20;;;16.20;99.90;;;;;;5058754;28;20049;-86
2022/08/31 20:10:53;;;;;;;1.05;0.20;;;16.20;99.90;;;;;;5074041;28;20059;-85
2022/08/31 20:13:50;;;;;;;1.05;0.20;;;16.20;99.90;;;;;;5069031;28;20171;-84
2022/08/31 20:16:40;;;;;;;1.77;0.50;;;16.20;99.90;;;;;;5067523;28;20036;-83
2022/08/31 20:19:29;;;;;;;;;;;;;;;;;;;;;
2022/08/31 20:22:23;;;;;;;2.22;0.20;;;16.20;99.90;;;;;;5090549;28;20044;-84
2022/08/31 20:25:19;;;;;;;1.38;0.30;;;16.20;99.90;;;;;;5077358;28;20497;-82
2022/08/31 20:28:14;;;;;;;0.85;0.30;;;16.10;99.90;;;;;;5089837;28;20071;-85
2022/08/31 20:31:05;;;;;;;1.45;0.47;;;16.10;99.90;;;;;;5091499;28;20109;-83
2022/08/31 20:33:49;;;;;;;1.17;0.20;;;16.00;99.90;;;;;;5090338;28;20048;-83
2022/08/31 20:36:33;;;;;;;0.35;0.20;;;16.00;99.90;;;;;;5069531;28;20083;-83
2022/08/31 20:39:25;;;;;;;1.17;0.40;;;16.00;99.90;;;;;;5077422;28;20128;-82
2022/08/31 20:42:25;;;;;;;0.37;0.30;;;16.00;99.90;;;;;;5092269;28;20374;-84
2022/08/31 20:45:22;;;;;;;1.02;0.25;;;15.90;99.90;;;;;;5076180;28;20048;-81
2022/08/31 20:55:01;;;;;;;0.28;0.20;;;15.80;99.90;;;;;;5082534;28;20055;-82
2022/08/31 20:57:55;;;;;;;2.53;0.30;;;15.80;99.90;;;;;;5070984;28;20052;-83
2022/08/31 21:00:46;;;;;;;0.90;0.20;;;15.70;99.90;;;;;;5075689;28;20072;-83
2022/08/31 21:03:46;;;;;;;;;;;;;;;;;;;;;
2022/08/31 21:06:36;;;;;;;1.88;0.30;;;15.70;99.90;;;;;;5092231;28;20040;-81
2022/08/31 21:09:23;;;;;;;1.63;0.40;;;15.70;99.90;;;;;;5025085;28;20083;-83
2022/08/31 21:12:15;;;;;;;0.95;0.30;;;15.70;99.90;;;;;;5075652;28;20049;-85
2022/08/31 21:23:09;;;;;;;0.70;0.30;;;15.60;99.90;;;;;;5076642;28;20082;-84
2022/08/31 21:25:54;;;;;;;0.52;0.30;;;15.50;99.90;;;;;;5069620;28;20131;-82
2022/08/31 21:28:42;;;;;;;1.10;0.30;;;15.50;99.90;;;;;;5075670;28;20040;-84
2022/08/31 21:31:30;;;;;;;0.20;0.17;;;15.50;99.90;;;;;;5075937;28;20081;-81
2022/08/31 21:34:12;;;;;;;1.90;0.20;;;15.40;99.90;;;;;;5023398;28;20056;-83
2022/08/31 21:37:00;;;;;;;1.25;0.20;;;15.40;99.90;;;;;;5075241;28;20124;-83
2022/08/31 21:39:39;;;;;;;1.80;0.30;;;15.40;99.90;;;;;;5066480;28;20524;-82
2022/08/31 21:42:30;;;;;;;0.30;0.20;;;15.40;99.90;;;;;;5079698;28;20436;-81
2022/08/31 21:45:20;;;;;;;0.28;0.17;;;15.30;99.90;;;;;;5061279;28;20044;-80
2022/08/31 21:47:52;;;;;;;0.55;0.30;;;15.30;99.90;;;;;;5058222;28;20393;-83
2022/08/31 21:50:25;;;;;;;0.93;0.22;;;15.30;99.90;;;;;;5073892;28;20044;-82
2022/08/31 21:52:54;;;;;;;0.73;0.30;;;15.20;99.90;;;;;;5074454;28;20143;-82
2022/08/31 21:55:37;;;;;;;0.70;0.20;;;15.30;99.90;;;;;;5090126;28;20507;-81
2022/08/31 21:58:22;;;;;;;0.85;0.28;;;15.20;99.90;;;;;;5094270;28;20039;-81
2022/08/31 22:01:01;;;;;;;0.88;0.20;;;15.20;99.90;;;;;;5071520;28;20039;-82
2022/08/31 22:08:13;;;;;;;1.45;0.30;;;15.10;99.90;;;;;;5074474;28;20049;-81
2022/08/31 22:11:00;;;;;;;0.63;0.20;;;15.10;99.90;;;;;;5068524;28;20076;-82
2022/08/31 22:14:00;;;;;;;0.10;0.10;;;15.10;99.90;;;;;;5069867;28;20053;-84
2022/08/31 22:16:56;;;;;;;2.30;0.20;;;15.10;99.90;;;;;;5093879;28;20044;-81
2022/08/31 22:19:34;;;;;;;1.55;0.20;;;15.00;99.90;;;;;;5037427;28;20048;-82
2022/08/31 22:22:10;;;;;;;0.40;0.20;;;15.10;99.90;;;;;;5056491;28;20420;-82
2022/08/31 22:24:41;;;;;;;1.73;0.20;;;15.10;99.90;;;;;;5056181;28;20044;-82
2022/08/31 22:27:20;;;;;;;0.77;0.20;;;15.00;99.90;;;;;;5073427;28;20123;-82
2022/08/31 22:29:53;;;;;;;1.27;0.20;;;15.00;99.90;;;;;;5071874;28;20040;-81
2022/08/31 22:32:21;;;;;;;0.20;0.20;;;15.00;99.90;;;;;;5074127;28;20147;-81
2022/08/31 22:34:50;;;;;;;0.30;0.28;;;15.00;99.90;;;;;;5073783;28;20037;-81
2022/08/31 22:37:22;;;;;;;0.20;0.10;;;15.00;99.90;;;;;;5073414;28;20036;-81
2022/08/31 22:39:52;;;;;;;0.32;0.28;;;15.00;99.90;;;;;;5075066;28;20040;-81
2022/08/31 22:42:28;;;;;;;0.40;0.20;;;15.00;99.90;;;;;;5074830;28;20032;-81
2022/08/31 22:44:55;;;;;;;0.30;0.30;;;15.00;99.90;;;;;;5073193;28;20047;-81
2022/08/31 22:47:23;;;;;;;0.28;0.28;;;15.00;99.90;;;;;;5056339;28;20040;-81
2022/08/31 22:49:49;;;;;;;0.90;0.30;;;14.90;99.90;;;;;;5073626;28;20396;-81
2022/08/31 22:52:20;;;;;;;1.85;0.22;;;14.90;99.90;;;;;;5078083;28;20036;-81
2022/08/31 22:54:54;;;;;;;0.75;0.20;;;14.90;99.90;;;;;;5074850;28;20082;-80
2022/08/31 22:57:24;;;;;;;1.15;0.30;;;14.90;99.90;;;;;;5093381;28;20494;-81
2022/08/31 22:59:54;;;;;;;0.65;0.20;;;14.90;99.90;;;;;;5082770;28;20048;-81
2022/08/31 23:02:26;;;;;;;0.17;0.17;;;14.90;99.90;;;;;;5076512;28;20059;-82
2022/08/31 23:04:58;;;;;;;0.70;0.20;;;14.80;99.90;;;;;;5092770;28;20059;-80
2022/08/31 23:07:47;;;;;;;0.22;0.20;;;14.90;99.90;;;;;;5089907;28;20488;-84
2022/08/31 23:10:19;;;;;;;0.30;0.20;;;14.90;99.90;;;;;;5068140;28;20493;-83
2022/08/31 23:12:54;;;;;;;0.20;0.20;;;14.80;99.90;;;;;;5073437;28;20045;-81
2022/08/31 23:15:22;;;;;;;0.30;0.10;;;14.80;99.90;;;;;;5072646;28;20040;-81
2022/08/31 23:17:52;;;;;;;0.55;0.25;;;14.80;99.90;;;;;;5089829;28;20048;-81
2022/08/31 23:20:23;;;;;;;0.43;0.20;;;14.80;99.90;;;;;;5091248;28;20050;-81
2022/08/31 23:22:54;;;;;;;0.77;0.30;;;14.70;99.90;;;;;;5072671;28;20052;-80
2022/08/31 23:25:24;;;;;;;0.28;0.20;;;14.70;99.90;;;;;;5073160;28;20040;-82
2022/08/31 23:27:57;;;;;;;1.83;0.40;;;14.70;99.90;;;;;;5081218;28;20040;-81
2022/08/31 23:30:24;;;;;;;0.35;0.17;;;14.60;99.90;;;;;;5072552;28;20071;-80
2022/08/31 23:32:53;;;;;;;0.38;0.20;;;14.70;99.90;;;;;;5082081;28;20055;-82
2022/08/31 23:35:24;;;;;;;0.20;0.20;;;14.60;99.90;;;;;;5088302;28;20112;-81
2022/08/31 23:37:52;;;;;;;0.60;0.30;;;14.60;99.90;;;;;;5054958;28;20110;-81
2022/08/31 23:40:22;;;;;;;0.38;0.20;;;14.60;99.90;;;;;;5076551;28;20044;-81
2022/08/31 23:42:49;;;;;;;0.30;0.20;;;14.60;99.90;;;;;;5092690;28;20121;-82
2022/08/31 23:45:23;;;;;;;0.28;0.20;;;14.60;99.90;;;;;;5064791;28;20044;-83
2022/08/31 23:51:22;;;;;;;0.30;0.20;;;14.60;99.90;;;;;;5080786;28;20037;-84
2022/08/31 23:54:07;;;;;;;0.20;0.10;;;14.60;99.90;;;;;;5054919;28;20378;-83
2022/08/31 23:56:56;;;;;;;0.63;0.30;;;14.60;99.90;;;;;;5074086;28;20044;-82
2022/08/31 23:59:47;;;;;;;0.40;0.22;;;14.60;99.90;;;;;;5072159;28;20049;-82
